sensor_id;sensor_type;location;lat;lon;timestamp;pressure;altitude;pressure_sealevel;temperature
23208;BMP180;11773;52.570;13.052;2022-07-04T00:00:37;101332.00;;;28.20
23208;BMP180;11773;52.570;13.052;2022-07-04T00:03:07;101322.00;;;28.10
23208;BMP180;11773;52.570;13.052;2022-07-04T00:05:36;101330.00;;;28.10
23208;BMP180;11773;52.570;13.052;2022-07-04T00:08:06;101305.00;;;28.10
23208;BMP180;11773;52.570;13.052;2022-07-04T00:10:36;101291.00;;;28.10
23208;BMP180;11773;52.570;13.052;2022-07-04T00:13:05;101299.00;;;28.10
23208;BMP180;11773;52.570;13.052;2022-07-04T00:15:35;101314.00;;;28.00
23208;BMP180;11773;52.570;13.052;2022-07-04T00:18:05;101314.00;;;28.00
23208;BMP180;11773;52.570;13.052;2022-07-04T00:20:34;101319.00;;;28.00
23208;BMP180;11773;52.570;13.052;2022-07-04T00:23:04;101319.00;;;28.00
23208;BMP180;11773;52.570;13.052;2022-07-04T00:25:33;101309.00;;;28.00
23208;BMP180;11773;52.570;13.052;2022-07-04T00:28:03;101320.00;;;28.00
23208;BMP180;11773;52.570;13.052;2022-07-04T00:30:33;101318.00;;;28.00
23208;BMP180;11773;52.570;13.052;2022-07-04T00:33:02;101325.00;;;28.00
23208;BMP180;11773;52.570;13.052;2022-07-04T00:35:32;101302.00;;;27.90
23208;BMP180;11773;52.570;13.052;2022-07-04T00:38:02;101308.00;;;27.90
23208;BMP180;11773;52.570;13.052;2022-07-04T00:40:31;101306.00;;;27.90
23208;BMP180;11773;52.570;13.052;2022-07-04T00:43:03;101309.00;;;27.90
23208;BMP180;11773;52.570;13.052;2022-07-04T00:45:33;101313.00;;;27.90
23208;BMP180;11773;52.570;13.052;2022-07-04T00:48:03;101308.00;;;27.80
23208;BMP180;11773;52.570;13.052;2022-07-04T00:50:32;101320.00;;;27.80
23208;BMP180;11773;52.570;13.052;2022-07-04T00:53:02;101322.00;;;27.80
23208;BMP180;11773;52.570;13.052;2022-07-04T00:55:32;101328.00;;;27.80
23208;BMP180;11773;52.570;13.052;2022-07-04T00:58:02;101338.00;;;27.70
23208;BMP180;11773;52.570;13.052;2022-07-04T01:00:32;101336.00;;;27.70
23208;BMP180;11773;52.570;13.052;2022-07-04T01:03:02;101356.00;;;27.70
23208;BMP180;11773;52.570;13.052;2022-07-04T01:05:31;101345.00;;;27.60
23208;BMP180;11773;52.570;13.052;2022-07-04T01:08:01;101351.00;;;27.60
23208;BMP180;11773;52.570;13.052;2022-07-04T01:10:32;101356.00;;;27.60
23208;BMP180;11773;52.570;13.052;2022-07-04T01:13:02;101365.00;;;27.50
23208;BMP180;11773;52.570;13.052;2022-07-04T01:15:31;101384.00;;;27.50
23208;BMP180;11773;52.570;13.052;2022-07-04T01:18:01;101369.00;;;27.50
23208;BMP180;11773;52.570;13.052;2022-07-04T01:20:50;101379.00;;;27.40
23208;BMP180;11773;52.570;13.052;2022-07-04T01:23:19;101370.00;;;27.40
23208;BMP180;11773;52.570;13.052;2022-07-04T01:25:49;101374.00;;;27.30
23208;BMP180;11773;52.570;13.052;2022-07-04T01:28:23;101375.00;;;27.30
23208;BMP180;11773;52.570;13.052;2022-07-04T01:30:53;101375.00;;;27.20
23208;BMP180;11773;52.570;13.052;2022-07-04T01:33:22;101387.00;;;27.20
23208;BMP180;11773;52.570;13.052;2022-07-04T01:35:52;101386.00;;;27.20
23208;BMP180;11773;52.570;13.052;2022-07-04T01:38:22;101376.00;;;27.10
23208;BMP180;11773;52.570;13.052;2022-07-04T01:40:52;101377.00;;;27.10
23208;BMP180;11773;52.570;13.052;2022-07-04T01:43:21;101395.00;;;27.00
23208;BMP180;11773;52.570;13.052;2022-07-04T01:45:51;101389.00;;;27.00
23208;BMP180;11773;52.570;13.052;2022-07-04T01:48:20;101382.00;;;26.90
23208;BMP180;11773;52.570;13.052;2022-07-04T01:50:50;101376.00;;;26.90
23208;BMP180;11773;52.570;13.052;2022-07-04T01:53:19;101388.00;;;26.80
23208;BMP180;11773;52.570;13.052;2022-07-04T01:55:48;101386.00;;;26.80
23208;BMP180;11773;52.570;13.052;2022-07-04T01:58:18;101402.00;;;26.80
23208;BMP180;11773;52.570;13.052;2022-07-04T02:00:47;101407.00;;;26.70
23208;BMP180;11773;52.570;13.052;2022-07-04T02:03:36;101397.00;;;26.70
23208;BMP180;11773;52.570;13.052;2022-07-04T02:06:05;101392.00;;;26.60
23208;BMP180;11773;52.570;13.052;2022-07-04T02:08:35;101402.00;;;26.60
23208;BMP180;11773;52.570;13.052;2022-07-04T02:11:22;101397.00;;;26.50
23208;BMP180;11773;52.570;13.052;2022-07-04T02:13:52;101409.00;;;26.50
23208;BMP180;11773;52.570;13.052;2022-07-04T02:16:21;101405.00;;;26.50
23208;BMP180;11773;52.570;13.052;2022-07-04T02:18:51;101421.00;;;26.50
23208;BMP180;11773;52.570;13.052;2022-07-04T02:21:20;101408.00;;;26.50
23208;BMP180;11773;52.570;13.052;2022-07-04T02:23:50;101428.00;;;26.50
23208;BMP180;11773;52.570;13.052;2022-07-04T02:26:19;101413.00;;;26.40
23208;BMP180;11773;52.570;13.052;2022-07-04T02:28:49;101412.00;;;26.40
23208;BMP180;11773;52.570;13.052;2022-07-04T02:31:18;101428.00;;;26.40
23208;BMP180;11773;52.570;13.052;2022-07-04T02:33:48;101416.00;;;26.40
23208;BMP180;11773;52.570;13.052;2022-07-04T02:36:17;101416.00;;;26.40
23208;BMP180;11773;52.570;13.052;2022-07-04T02:38:47;101413.00;;;26.30
23208;BMP180;11773;52.570;13.052;2022-07-04T02:41:16;101411.00;;;26.30
23208;BMP180;11773;52.570;13.052;2022-07-04T02:43:46;101421.00;;;26.30
23208;BMP180;11773;52.570;13.052;2022-07-04T02:46:15;101410.00;;;26.30
23208;BMP180;11773;52.570;13.052;2022-07-04T02:48:45;101407.00;;;26.30
23208;BMP180;11773;52.570;13.052;2022-07-04T02:51:15;101398.00;;;26.20
23208;BMP180;11773;52.570;13.052;2022-07-04T02:53:44;101409.00;;;26.20
23208;BMP180;11773;52.570;13.052;2022-07-04T02:56:14;101408.00;;;26.20
23208;BMP180;11773;52.570;13.052;2022-07-04T02:58:43;101415.00;;;26.10
23208;BMP180;11773;52.570;13.052;2022-07-04T03:01:13;101427.00;;;26.10
23208;BMP180;11773;52.570;13.052;2022-07-04T03:03:43;101427.00;;;26.10
23208;BMP180;11773;52.570;13.052;2022-07-04T03:06:13;101439.00;;;26.10
23208;BMP180;11773;52.570;13.052;2022-07-04T03:08:43;101439.00;;;26.00
23208;BMP180;11773;52.570;13.052;2022-07-04T03:11:13;101448.00;;;26.00
23208;BMP180;11773;52.570;13.052;2022-07-04T03:13:42;101441.00;;;26.00
23208;BMP180;11773;52.570;13.052;2022-07-04T03:16:12;101445.00;;;26.00
23208;BMP180;11773;52.570;13.052;2022-07-04T03:18:41;101429.00;;;26.00
23208;BMP180;11773;52.570;13.052;2022-07-04T03:21:11;101440.00;;;25.90
23208;BMP180;11773;52.570;13.052;2022-07-04T03:23:40;101432.00;;;25.90
23208;BMP180;11773;52.570;13.052;2022-07-04T03:26:10;101438.00;;;25.90
23208;BMP180;11773;52.570;13.052;2022-07-04T03:28:39;101436.00;;;25.80
23208;BMP180;11773;52.570;13.052;2022-07-04T03:31:11;101441.00;;;25.80
23208;BMP180;11773;52.570;13.052;2022-07-04T03:33:40;101445.00;;;25.80
23208;BMP180;11773;52.570;13.052;2022-07-04T03:36:10;101440.00;;;25.70
23208;BMP180;11773;52.570;13.052;2022-07-04T03:38:39;101445.00;;;25.70
23208;BMP180;11773;52.570;13.052;2022-07-04T03:41:09;101457.00;;;25.70
23208;BMP180;11773;52.570;13.052;2022-07-04T03:43:39;101459.00;;;25.70
23208;BMP180;11773;52.570;13.052;2022-07-04T03:46:09;101454.00;;;25.70
23208;BMP180;11773;52.570;13.052;2022-07-04T03:48:38;101478.00;;;25.70
23208;BMP180;11773;52.570;13.052;2022-07-04T03:51:09;101482.00;;;25.60
23208;BMP180;11773;52.570;13.052;2022-07-04T03:53:39;101487.00;;;25.60
23208;BMP180;11773;52.570;13.052;2022-07-04T03:56:09;101497.00;;;25.60
23208;BMP180;11773;52.570;13.052;2022-07-04T03:58:39;101484.00;;;25.60
23208;BMP180;11773;52.570;13.052;2022-07-04T04:01:10;101488.00;;;25.50
23208;BMP180;11773;52.570;13.052;2022-07-04T04:03:40;101501.00;;;25.50
23208;BMP180;11773;52.570;13.052;2022-07-04T04:06:27;101506.00;;;25.40
23208;BMP180;11773;52.570;13.052;2022-07-04T04:08:57;101510.00;;;25.40
23208;BMP180;11773;52.570;13.052;2022-07-04T04:11:27;101506.00;;;25.40
23208;BMP180;11773;52.570;13.052;2022-07-04T04:13:56;101494.00;;;25.40
23208;BMP180;11773;52.570;13.052;2022-07-04T04:16:26;101496.00;;;25.30
23208;BMP180;11773;52.570;13.052;2022-07-04T04:18:55;101504.00;;;25.30
23208;BMP180;11773;52.570;13.052;2022-07-04T04:21:25;101516.00;;;25.30
23208;BMP180;11773;52.570;13.052;2022-07-04T04:23:55;101509.00;;;25.30
23208;BMP180;11773;52.570;13.052;2022-07-04T04:26:24;101509.00;;;25.30
23208;BMP180;11773;52.570;13.052;2022-07-04T04:28:54;101519.00;;;25.30
23208;BMP180;11773;52.570;13.052;2022-07-04T04:31:23;101529.00;;;25.30
23208;BMP180;11773;52.570;13.052;2022-07-04T04:33:53;101512.00;;;25.20
23208;BMP180;11773;52.570;13.052;2022-07-04T04:36:23;101523.00;;;25.20
23208;BMP180;11773;52.570;13.052;2022-07-04T04:38:53;101530.00;;;25.20
23208;BMP180;11773;52.570;13.052;2022-07-04T04:41:22;101515.00;;;25.20
23208;BMP180;11773;52.570;13.052;2022-07-04T04:43:52;101524.00;;;25.30
23208;BMP180;11773;52.570;13.052;2022-07-04T04:46:21;101536.00;;;25.30
23208;BMP180;11773;52.570;13.052;2022-07-04T04:48:51;101535.00;;;25.30
23208;BMP180;11773;52.570;13.052;2022-07-04T04:51:21;101527.00;;;25.30
23208;BMP180;11773;52.570;13.052;2022-07-04T04:53:50;101534.00;;;25.30
23208;BMP180;11773;52.570;13.052;2022-07-04T04:56:20;101521.00;;;25.30
23208;BMP180;11773;52.570;13.052;2022-07-04T04:58:49;101539.00;;;25.30
23208;BMP180;11773;52.570;13.052;2022-07-04T05:01:19;101519.00;;;25.30
23208;BMP180;11773;52.570;13.052;2022-07-04T05:03:50;101531.00;;;25.20
23208;BMP180;11773;52.570;13.052;2022-07-04T05:06:20;101520.00;;;25.20
23208;BMP180;11773;52.570;13.052;2022-07-04T05:08:49;101538.00;;;25.20
23208;BMP180;11773;52.570;13.052;2022-07-04T05:11:19;101535.00;;;25.30
23208;BMP180;11773;52.570;13.052;2022-07-04T05:13:49;101548.00;;;25.30
23208;BMP180;11773;52.570;13.052;2022-07-04T05:16:18;101539.00;;;25.30
23208;BMP180;11773;52.570;13.052;2022-07-04T05:18:48;101554.00;;;25.40
23208;BMP180;11773;52.570;13.052;2022-07-04T05:21:17;101550.00;;;25.40
23208;BMP180;11773;52.570;13.052;2022-07-04T05:23:47;101561.00;;;25.50
23208;BMP180;11773;52.570;13.052;2022-07-04T05:26:16;101550.00;;;25.60
23208;BMP180;11773;52.570;13.052;2022-07-04T05:28:46;101561.00;;;25.80
23208;BMP180;11773;52.570;13.052;2022-07-04T05:31:15;101572.00;;;26.00
23208;BMP180;11773;52.570;13.052;2022-07-04T05:33:45;101551.00;;;26.20
23208;BMP180;11773;52.570;13.052;2022-07-04T05:36:15;101581.00;;;26.40
23208;BMP180;11773;52.570;13.052;2022-07-04T05:38:44;101572.00;;;26.50
23208;BMP180;11773;52.570;13.052;2022-07-04T05:41:14;101585.00;;;26.80
23208;BMP180;11773;52.570;13.052;2022-07-04T05:43:43;101572.00;;;26.90
23208;BMP180;11773;52.570;13.052;2022-07-04T05:46:13;101579.00;;;27.20
23208;BMP180;11773;52.570;13.052;2022-07-04T05:48:43;101575.00;;;27.30
23208;BMP180;11773;52.570;13.052;2022-07-04T05:51:12;101582.00;;;27.50
23208;BMP180;11773;52.570;13.052;2022-07-04T05:53:42;101582.00;;;27.70
23208;BMP180;11773;52.570;13.052;2022-07-04T05:56:11;101584.00;;;27.90
23208;BMP180;11773;52.570;13.052;2022-07-04T05:58:41;101591.00;;;28.00
23208;BMP180;11773;52.570;13.052;2022-07-04T06:01:11;101596.00;;;28.10
23208;BMP180;11773;52.570;13.052;2022-07-04T06:03:40;101589.00;;;28.30
23208;BMP180;11773;52.570;13.052;2022-07-04T06:06:10;101590.00;;;28.40
23208;BMP180;11773;52.570;13.052;2022-07-04T06:08:39;101584.00;;;28.50
23208;BMP180;11773;52.570;13.052;2022-07-04T06:11:09;101602.00;;;28.60
23208;BMP180;11773;52.570;13.052;2022-07-04T06:13:38;101598.00;;;28.70
23208;BMP180;11773;52.570;13.052;2022-07-04T06:16:08;101604.00;;;28.80
23208;BMP180;11773;52.570;13.052;2022-07-04T06:18:37;101613.00;;;28.90
23208;BMP180;11773;52.570;13.052;2022-07-04T06:21:07;101603.00;;;29.00
23208;BMP180;11773;52.570;13.052;2022-07-04T06:23:36;101609.00;;;29.10
23208;BMP180;11773;52.570;13.052;2022-07-04T06:26:06;101622.00;;;29.20
23208;BMP180;11773;52.570;13.052;2022-07-04T06:28:35;101620.00;;;29.20
23208;BMP180;11773;52.570;13.052;2022-07-04T06:31:07;101630.00;;;29.30
23208;BMP180;11773;52.570;13.052;2022-07-04T06:33:37;101623.00;;;29.30
23208;BMP180;11773;52.570;13.052;2022-07-04T06:36:08;101637.00;;;29.30
23208;BMP180;11773;52.570;13.052;2022-07-04T06:38:38;101645.00;;;29.20
23208;BMP180;11773;52.570;13.052;2022-07-04T06:41:07;101642.00;;;29.20
23208;BMP180;11773;52.570;13.052;2022-07-04T06:43:37;101651.00;;;29.20
23208;BMP180;11773;52.570;13.052;2022-07-04T06:46:06;101636.00;;;29.20
23208;BMP180;11773;52.570;13.052;2022-07-04T06:48:36;101631.00;;;29.20
23208;BMP180;11773;52.570;13.052;2022-07-04T06:51:06;101629.00;;;29.30
23208;BMP180;11773;52.570;13.052;2022-07-04T06:53:36;101641.00;;;29.30
23208;BMP180;11773;52.570;13.052;2022-07-04T06:56:06;101647.00;;;29.40
23208;BMP180;11773;52.570;13.052;2022-07-04T06:58:35;101642.00;;;29.50
23208;BMP180;11773;52.570;13.052;2022-07-04T07:01:05;101630.00;;;29.50
23208;BMP180;11773;52.570;13.052;2022-07-04T07:03:34;101635.00;;;29.50
23208;BMP180;11773;52.570;13.052;2022-07-04T07:06:04;101627.00;;;29.50
23208;BMP180;11773;52.570;13.052;2022-07-04T07:08:34;101635.00;;;29.50
23208;BMP180;11773;52.570;13.052;2022-07-04T07:11:03;101632.00;;;29.50
23208;BMP180;11773;52.570;13.052;2022-07-04T07:13:45;101643.00;;;29.40
23208;BMP180;11773;52.570;13.052;2022-07-04T07:16:16;101652.00;;;29.40
23208;BMP180;11773;52.570;13.052;2022-07-04T07:18:46;101658.00;;;29.30
23208;BMP180;11773;52.570;13.052;2022-07-04T07:21:17;101660.00;;;29.20
23208;BMP180;11773;52.570;13.052;2022-07-04T07:23:47;101661.00;;;29.10
23208;BMP180;11773;52.570;13.052;2022-07-04T07:26:17;101650.00;;;29.10
23208;BMP180;11773;52.570;13.052;2022-07-04T07:28:47;101642.00;;;29.00
23208;BMP180;11773;52.570;13.052;2022-07-04T07:31:16;101648.00;;;28.90
23208;BMP180;11773;52.570;13.052;2022-07-04T07:33:46;101652.00;;;28.90
23208;BMP180;11773;52.570;13.052;2022-07-04T07:36:15;101655.00;;;28.80
23208;BMP180;11773;52.570;13.052;2022-07-04T07:38:45;101636.00;;;28.80
23208;BMP180;11773;52.570;13.052;2022-07-04T07:41:14;101656.00;;;28.80
23208;BMP180;11773;52.570;13.052;2022-07-04T07:43:44;101658.00;;;28.80
23208;BMP180;11773;52.570;13.052;2022-07-04T07:46:14;101651.00;;;28.80
23208;BMP180;11773;52.570;13.052;2022-07-04T07:48:43;101654.00;;;28.80
23208;BMP180;11773;52.570;13.052;2022-07-04T07:51:13;101650.00;;;28.80
23208;BMP180;11773;52.570;13.052;2022-07-04T07:53:44;101658.00;;;28.90
23208;BMP180;11773;52.570;13.052;2022-07-04T07:56:16;101652.00;;;28.90
23208;BMP180;11773;52.570;13.052;2022-07-04T07:58:45;101655.00;;;28.90
23208;BMP180;11773;52.570;13.052;2022-07-04T08:01:15;101654.00;;;28.80
23208;BMP180;11773;52.570;13.052;2022-07-04T08:03:45;101661.00;;;28.80
23208;BMP180;11773;52.570;13.052;2022-07-04T08:06:33;101658.00;;;28.80
23208;BMP180;11773;52.570;13.052;2022-07-04T08:09:03;101652.00;;;28.80
23208;BMP180;11773;52.570;13.052;2022-07-04T08:11:33;101652.00;;;28.80
23208;BMP180;11773;52.570;13.052;2022-07-04T08:14:03;101662.00;;;28.80
23208;BMP180;11773;52.570;13.052;2022-07-04T08:16:34;101660.00;;;28.90
23208;BMP180;11773;52.570;13.052;2022-07-04T08:19:06;101657.00;;;28.90
23208;BMP180;11773;52.570;13.052;2022-07-04T08:21:35;101653.00;;;29.00
23208;BMP180;11773;52.570;13.052;2022-07-04T08:24:07;101659.00;;;29.10
23208;BMP180;11773;52.570;13.052;2022-07-04T08:26:38;101660.00;;;29.10
23208;BMP180;11773;52.570;13.052;2022-07-04T08:29:07;101665.00;;;29.20
23208;BMP180;11773;52.570;13.052;2022-07-04T08:31:37;101664.00;;;29.20
23208;BMP180;11773;52.570;13.052;2022-07-04T08:34:09;101668.00;;;29.20
23208;BMP180;11773;52.570;13.052;2022-07-04T08:36:38;101647.00;;;29.30
23208;BMP180;11773;52.570;13.052;2022-07-04T08:39:08;101644.00;;;29.30
23208;BMP180;11773;52.570;13.052;2022-07-04T08:41:40;101642.00;;;29.30
23208;BMP180;11773;52.570;13.052;2022-07-04T08:44:11;101636.00;;;29.30
23208;BMP180;11773;52.570;13.052;2022-07-04T08:46:42;101644.00;;;29.40
23208;BMP180;11773;52.570;13.052;2022-07-04T08:49:20;101640.00;;;29.40
23208;BMP180;11773;52.570;13.052;2022-07-04T08:54:25;101639.00;;;29.50
23208;BMP180;11773;52.570;13.052;2022-07-04T08:57:13;101638.00;;;29.60
23208;BMP180;11773;52.570;13.052;2022-07-04T09:00:01;101651.00;;;29.60
23208;BMP180;11773;52.570;13.052;2022-07-04T09:02:33;101653.00;;;29.70
23208;BMP180;11773;52.570;13.052;2022-07-04T09:05:03;101654.00;;;29.80
23208;BMP180;11773;52.570;13.052;2022-07-04T09:07:34;101644.00;;;29.80
23208;BMP180;11773;52.570;13.052;2022-07-04T09:10:04;101657.00;;;29.90
23208;BMP180;11773;52.570;13.052;2022-07-04T09:12:34;101665.00;;;29.90
23208;BMP180;11773;52.570;13.052;2022-07-04T09:15:07;101659.00;;;29.90
23208;BMP180;11773;52.570;13.052;2022-07-04T09:17:36;101669.00;;;30.00
23208;BMP180;11773;52.570;13.052;2022-07-04T09:20:21;101661.00;;;30.00
23208;BMP180;11773;52.570;13.052;2022-07-04T09:22:53;101664.00;;;30.10
23208;BMP180;11773;52.570;13.052;2022-07-04T09:25:25;101666.00;;;30.20
23208;BMP180;11773;52.570;13.052;2022-07-04T09:27:56;101667.00;;;30.30
23208;BMP180;11773;52.570;13.052;2022-07-04T09:30:28;101667.00;;;30.40
23208;BMP180;11773;52.570;13.052;2022-07-04T09:32:58;101661.00;;;30.50
23208;BMP180;11773;52.570;13.052;2022-07-04T09:35:32;101661.00;;;30.50
23208;BMP180;11773;52.570;13.052;2022-07-04T09:38:04;101668.00;;;30.60
23208;BMP180;11773;52.570;13.052;2022-07-04T09:40:37;101660.00;;;30.60
23208;BMP180;11773;52.570;13.052;2022-07-04T09:43:13;101668.00;;;30.60
23208;BMP180;11773;52.570;13.052;2022-07-04T09:45:59;101666.00;;;30.70
23208;BMP180;11773;52.570;13.052;2022-07-04T09:48:50;101660.00;;;30.60
23208;BMP180;11773;52.570;13.052;2022-07-04T09:51:44;101664.00;;;30.70
23208;BMP180;11773;52.570;13.052;2022-07-04T09:54:27;101672.00;;;30.60
23208;BMP180;11773;52.570;13.052;2022-07-04T09:57:03;101672.00;;;30.60
23208;BMP180;11773;52.570;13.052;2022-07-04T09:59:33;101661.00;;;30.60
23208;BMP180;11773;52.570;13.052;2022-07-04T10:02:11;101662.00;;;30.60
23208;BMP180;11773;52.570;13.052;2022-07-04T10:04:50;101672.00;;;30.60
23208;BMP180;11773;52.570;13.052;2022-07-04T10:07:40;101674.00;;;30.50
23208;BMP180;11773;52.570;13.052;2022-07-04T10:10:33;101671.00;;;30.50
23208;BMP180;11773;52.570;13.052;2022-07-04T10:13:09;101672.00;;;30.40
23208;BMP180;11773;52.570;13.052;2022-07-04T10:15:42;101664.00;;;30.30
23208;BMP180;11773;52.570;13.052;2022-07-04T10:18:11;101662.00;;;30.30
23208;BMP180;11773;52.570;13.052;2022-07-04T10:20:43;101679.00;;;30.30
23208;BMP180;11773;52.570;13.052;2022-07-04T10:23:13;101673.00;;;30.30
23208;BMP180;11773;52.570;13.052;2022-07-04T10:25:50;101659.00;;;30.20
23208;BMP180;11773;52.570;13.052;2022-07-04T10:28:20;101660.00;;;30.20
23208;BMP180;11773;52.570;13.052;2022-07-04T10:30:57;101666.00;;;30.20
23208;BMP180;11773;52.570;13.052;2022-07-04T10:33:31;101652.00;;;30.20
23208;BMP180;11773;52.570;13.052;2022-07-04T10:36:04;101663.00;;;30.20
23208;BMP180;11773;52.570;13.052;2022-07-04T10:39:01;101653.00;;;30.20
23208;BMP180;11773;52.570;13.052;2022-07-04T10:41:31;101652.00;;;30.20
23208;BMP180;11773;52.570;13.052;2022-07-04T10:44:06;101650.00;;;30.20
23208;BMP180;11773;52.570;13.052;2022-07-04T10:46:49;101647.00;;;30.20
23208;BMP180;11773;52.570;13.052;2022-07-04T10:49:21;101651.00;;;30.20
23208;BMP180;11773;52.570;13.052;2022-07-04T10:51:55;101660.00;;;30.20
23208;BMP180;11773;52.570;13.052;2022-07-04T10:54:38;101665.00;;;30.20
23208;BMP180;11773;52.570;13.052;2022-07-04T10:57:18;101657.00;;;30.20
23208;BMP180;11773;52.570;13.052;2022-07-04T11:02:33;101645.00;;;30.20
23208;BMP180;11773;52.570;13.052;2022-07-04T11:05:08;101645.00;;;30.20
23208;BMP180;11773;52.570;13.052;2022-07-04T11:18:11;101630.00;;;30.40
23208;BMP180;11773;52.570;13.052;2022-07-04T11:20:46;101638.00;;;30.40
23208;BMP180;11773;52.570;13.052;2022-07-04T11:23:18;101633.00;;;30.40
23208;BMP180;11773;52.570;13.052;2022-07-04T11:25:49;101623.00;;;30.40
23208;BMP180;11773;52.570;13.052;2022-07-04T11:28:28;101628.00;;;30.30
23208;BMP180;11773;52.570;13.052;2022-07-04T11:31:01;101631.00;;;30.40
23208;BMP180;11773;52.570;13.052;2022-07-04T11:33:33;101620.00;;;30.40
23208;BMP180;11773;52.570;13.052;2022-07-04T11:36:13;101621.00;;;30.40
23208;BMP180;11773;52.570;13.052;2022-07-04T11:39:03;101619.00;;;30.40
23208;BMP180;11773;52.570;13.052;2022-07-04T11:41:36;101614.00;;;30.40
23208;BMP180;11773;52.570;13.052;2022-07-04T11:44:33;101615.00;;;30.30
23208;BMP180;11773;52.570;13.052;2022-07-04T11:47:36;101621.00;;;30.30
23208;BMP180;11773;52.570;13.052;2022-07-04T11:50:12;101616.00;;;30.20
23208;BMP180;11773;52.570;13.052;2022-07-04T11:52:50;101602.00;;;30.20
23208;BMP180;11773;52.570;13.052;2022-07-04T11:55:22;101616.00;;;30.30
23208;BMP180;11773;52.570;13.052;2022-07-04T11:57:52;101605.00;;;30.30
23208;BMP180;11773;52.570;13.052;2022-07-04T12:00:29;101608.00;;;30.30
23208;BMP180;11773;52.570;13.052;2022-07-04T12:03:03;101606.00;;;30.30
23208;BMP180;11773;52.570;13.052;2022-07-04T12:05:35;101607.00;;;30.30
23208;BMP180;11773;52.570;13.052;2022-07-04T12:08:06;101609.00;;;30.40
23208;BMP180;11773;52.570;13.052;2022-07-04T12:10:38;101601.00;;;30.40
23208;BMP180;11773;52.570;13.052;2022-07-04T12:13:13;101605.00;;;30.40
23208;BMP180;11773;52.570;13.052;2022-07-04T12:15:50;101593.00;;;30.50
23208;BMP180;11773;52.570;13.052;2022-07-04T12:18:26;101599.00;;;30.50
23208;BMP180;11773;52.570;13.052;2022-07-04T12:21:16;101589.00;;;30.50
23208;BMP180;11773;52.570;13.052;2022-07-04T12:23:55;101591.00;;;30.60
23208;BMP180;11773;52.570;13.052;2022-07-04T12:26:27;101615.00;;;30.60
23208;BMP180;11773;52.570;13.052;2022-07-04T12:28:57;101591.00;;;30.70
23208;BMP180;11773;52.570;13.052;2022-07-04T12:31:43;101605.00;;;30.70
23208;BMP180;11773;52.570;13.052;2022-07-04T12:34:17;101594.00;;;30.80
23208;BMP180;11773;52.570;13.052;2022-07-04T12:36:50;101587.00;;;30.80
23208;BMP180;11773;52.570;13.052;2022-07-04T12:39:35;101595.00;;;30.80
23208;BMP180;11773;52.570;13.052;2022-07-04T12:42:16;101579.00;;;30.90
23208;BMP180;11773;52.570;13.052;2022-07-04T12:44:47;101582.00;;;30.90
23208;BMP180;11773;52.570;13.052;2022-07-04T12:47:20;101596.00;;;31.00
23208;BMP180;11773;52.570;13.052;2022-07-04T12:49:52;101584.00;;;31.00
23208;BMP180;11773;52.570;13.052;2022-07-04T12:52:30;101580.00;;;31.10
23208;BMP180;11773;52.570;13.052;2022-07-04T12:55:08;101579.00;;;31.10
23208;BMP180;11773;52.570;13.052;2022-07-04T12:57:40;101578.00;;;31.20
23208;BMP180;11773;52.570;13.052;2022-07-04T13:00:10;101583.00;;;31.20
23208;BMP180;11773;52.570;13.052;2022-07-04T13:02:42;101569.00;;;31.30
23208;BMP180;11773;52.570;13.052;2022-07-04T13:05:12;101586.00;;;31.40
23208;BMP180;11773;52.570;13.052;2022-07-04T13:07:42;101582.00;;;31.40
23208;BMP180;11773;52.570;13.052;2022-07-04T13:10:11;101574.00;;;31.50
23208;BMP180;11773;52.570;13.052;2022-07-04T13:12:40;101574.00;;;31.60
23208;BMP180;11773;52.570;13.052;2022-07-04T13:15:10;101585.00;;;31.60
23208;BMP180;11773;52.570;13.052;2022-07-04T13:17:42;101575.00;;;31.60
23208;BMP180;11773;52.570;13.052;2022-07-04T13:20:12;101573.00;;;31.70
23208;BMP180;11773;52.570;13.052;2022-07-04T13:22:41;101587.00;;;31.70
23208;BMP180;11773;52.570;13.052;2022-07-04T13:25:11;101577.00;;;31.80
23208;BMP180;11773;52.570;13.052;2022-07-04T13:27:40;101581.00;;;31.80
23208;BMP180;11773;52.570;13.052;2022-07-04T13:30:10;101588.00;;;31.80
23208;BMP180;11773;52.570;13.052;2022-07-04T13:32:41;101593.00;;;31.80
23208;BMP180;11773;52.570;13.052;2022-07-04T13:35:10;101586.00;;;31.80
23208;BMP180;11773;52.570;13.052;2022-07-04T13:37:40;101576.00;;;31.80
23208;BMP180;11773;52.570;13.052;2022-07-04T13:40:10;101579.00;;;31.80
23208;BMP180;11773;52.570;13.052;2022-07-04T13:42:40;101593.00;;;31.80
23208;BMP180;11773;52.570;13.052;2022-07-04T13:45:28;101595.00;;;31.80
23208;BMP180;11773;52.570;13.052;2022-07-04T13:47:58;101589.00;;;31.80
23208;BMP180;11773;52.570;13.052;2022-07-04T13:50:28;101582.00;;;31.80
23208;BMP180;11773;52.570;13.052;2022-07-04T13:52:58;101594.00;;;31.80
23208;BMP180;11773;52.570;13.052;2022-07-04T13:55:28;101596.00;;;31.70
23208;BMP180;11773;52.570;13.052;2022-07-04T13:57:58;101579.00;;;31.70
23208;BMP180;11773;52.570;13.052;2022-07-04T14:00:27;101596.00;;;31.70
23208;BMP180;11773;52.570;13.052;2022-07-04T14:02:57;101596.00;;;31.70
23208;BMP180;11773;52.570;13.052;2022-07-04T14:05:27;101598.00;;;31.80
23208;BMP180;11773;52.570;13.052;2022-07-04T14:07:56;101603.00;;;31.70
23208;BMP180;11773;52.570;13.052;2022-07-04T14:10:26;101598.00;;;31.70
23208;BMP180;11773;52.570;13.052;2022-07-04T14:12:56;101596.00;;;31.70
23208;BMP180;11773;52.570;13.052;2022-07-04T14:15:25;101592.00;;;31.70
23208;BMP180;11773;52.570;13.052;2022-07-04T14:17:55;101592.00;;;31.70
23208;BMP180;11773;52.570;13.052;2022-07-04T14:20:24;101583.00;;;31.70
23208;BMP180;11773;52.570;13.052;2022-07-04T14:22:54;101586.00;;;31.70
23208;BMP180;11773;52.570;13.052;2022-07-04T14:25:23;101571.00;;;31.70